Latest Weather Observations for Fitzroy Crossing

IDW60801

Issued at 4:41 pm WST Wednesday 4 March 2015 (issued every 30 minutes, with the page automatically refreshed every 10 minutes)

About weather observations | Map of weather stations | Latest weather observations for WA | Other Formats
Station Details ID: 003093 Name: FITZROY CROSSING AERO Lat: -18.18 Lon: 125.56 Height: 114.5 m
Data from the previous 72 hours. | See also: Recent months at Fitzroy Crossing
Date/Time
WST
Temp
°C
App
Temp
°C
Dew
Point
Rel
Hum
%
Delta-T
°C
Wind Press
QNH
hPa
Press
MSL
hPa
Rain
since 9 am
mm
Dir
 
Spd
km/h
Gust
km/h
Spd
kts
Gust
kts
04/04:30pm 34.6 40.0 26.0 61 6.2 SE 9 13 5 7 1006.3 1005.4 0.0
04/04:00pm 34.4 39.5 26.1 62 6.0 SE 11 13 6 7 1006.0 1005.1 0.0
04/03:30pm 33.4 38.3 25.9 65 5.4 SE 11 13 6 7 1005.7 1004.8 0.0
04/03:00pm 32.2 35.9 24.5 64 5.4 SSE 13 19 7 10 1005.9 1005.0 0.0
04/02:32pm 31.0 31.7 22.9 62 5.6 ESE 24 48 13 26 1006.3 1005.4 0.0
04/02:30pm 31.5 33.0 23.1 61 5.8 E 20 48 11 26 1006.5 1005.6 0.0
04/02:28pm 32.5 35.7 24.3 62 5.8 E 15 48 8 26 1006.5 1005.6 0.0
04/02:00pm 35.9 43.2 28.0 64 5.8 ESE 6 11 3 6 1006.6 1005.7 0.0
04/01:30pm 35.0 42.3 27.9 66 5.2 N 6 13 3 7 1007.1 1006.2 0.0
04/01:00pm 34.7 41.4 28.4 70 4.7 NNE 11 20 6 11 1007.7 1006.8 0.0
04/12:30pm 34.6 42.0 29.3 74 4.0 NE 11 17 6 9 1007.9 1007.0 0.0
04/12:00pm 34.0 41.6 29.6 78 3.3 NNE 11 19 6 10 1008.3 1007.4 0.0
04/11:30am 33.5 41.8 30.0 82 2.6 NNE 9 15 5 8 1008.5 1007.6 0.0
04/11:00am 32.6 41.2 29.9 86 2.0 NW 7 11 4 6 1008.7 1007.8 0.0
04/10:30am 31.9 39.8 30.0 90 1.4 NNW 11 17 6 9 1008.7 1007.8 0.0
04/10:00am 31.7 41.2 30.8 95 0.7 NE 6 13 3 7 1008.8 1007.9 0.0
04/09:30am 30.8 41.1 30.8 100 0.0 ESE 2 11 1 6 1009.0 1008.1 0.0
04/09:00am 29.5 39.1 29.5 100 0.0 CALM 0 0 0 0 1008.8 1007.9 1.6
04/08:30am 28.5 37.3 28.5 100 0.0 CALM 0 0 0 0 1008.8 1007.9 1.4
04/08:00am 27.3 35.3 27.3 100 0.0 CALM 0 6 0 3 1008.8 1007.9 1.4
04/07:30am 26.5 33.5 26.5 100 0.0 SE 2 7 1 4 1008.7 1007.8 1.4
04/07:00am 25.3 30.6 25.3 100 0.0 SSW 7 9 4 5 1008.5 1007.6 1.4
04/06:30am 24.7 29.6 24.7 100 0.0 SW 7 9 4 5 1008.1 1007.2 1.4
04/06:00am 24.3 30.3 24.3 100 0.0 CALM 0 0 0 0 1007.8 1006.9 1.4
04/05:30am 24.1 30.0 24.1 100 0.0 CALM 0 0 0 0 1007.1 1006.2 1.4
04/05:00am 24.1 30.0 24.1 100 0.0 CALM 0 0 0 0 1006.8 1005.9 1.4
04/04:30am 24.1 30.0 24.1 100 0.0 CALM 0 0 0 0 1006.3 1005.4 1.4
04/04:00am 24.3 30.3 24.3 100 0.0 CALM 0 0 0 0 1006.5 1005.6 1.4
04/03:30am 24.3 30.3 24.3 100 0.0 CALM 0 0 0 0 1006.2 1005.3 1.4
04/03:00am 23.7 29.4 23.7 100 0.0 CALM 0 0 0 0 1006.3 1005.4 1.4
04/02:30am 24.1 28.7 24.1 100 0.0 ENE 7 9 4 5 1006.0 1005.1 1.4
04/02:00am 24.1 30.0 24.1 100 0.0 CALM 0 0 0 0 1006.0 1005.1 1.4
04/01:30am 23.8 28.4 23.8 100 0.0 N 6 7 3 4 1006.4 1005.5 1.4
04/01:00am 24.4 30.5 24.4 100 0.0 CALM 0 0 0 0 1006.6 1005.7 1.4
04/12:30am 24.4 30.5 24.4 100 0.0 CALM 0 0 0 0 1007.0 1006.1 1.4
04/12:00am 24.4 30.5 24.4 100 0.0 CALM 0 0 0 0 1007.0 1006.1 1.4
 
Date/Time
WST
Temp
°C
App
Temp
°C
Dew
Point
Rel
Hum
%
Delta-T
°C
Wind Press
QNH
hPa
Press
MSL
hPa
Rain
since 9 am
mm
Dir
 
Spd
km/h
Gust
km/h
Spd
kts
Gust
kts
03/11:30pm 24.3 30.3 24.3 100 0.0 CALM 0 0 0 0 1007.2 1006.3 1.4
03/11:00pm 24.0 28.5 24.0 100 0.0 N 7 11 4 6 1007.9 1007.0 1.4
03/10:30pm 24.6 30.8 24.6 100 0.0 CALM 0 0 0 0 1008.0 1007.1 1.4
03/10:00pm 24.7 31.0 24.7 100 0.0 CALM 0 0 0 0 1007.9 1007.0 1.4
03/09:30pm 24.7 29.6 24.7 100 0.0 SSW 7 9 4 5 1007.6 1006.7 1.4
03/09:00pm 24.8 29.7 24.6 99 0.1 SE 7 9 4 5 1007.4 1006.5 1.4
03/08:30pm 24.9 29.5 24.2 96 0.5 SSW 7 9 4 5 1007.5 1006.6 1.4
03/08:00pm 25.1 28.9 24.1 94 0.7 S 11 13 6 7 1007.7 1006.8 1.4
03/07:30pm 25.6 29.0 24.0 91 1.1 S 13 20 7 11 1007.6 1006.7 1.4
03/07:00pm 25.5 29.6 23.2 87 1.6 NW 7 9 4 5 1007.3 1006.4 1.4
03/06:30pm 25.6 30.7 22.7 84 2.0 CALM 0 0 0 0 1007.0 1006.1 1.4
03/06:00pm 25.4 30.1 21.9 81 2.3 CALM 0 0 0 0 1006.6 1005.7 1.4
03/05:30pm 25.4 27.8 20.9 76 3.0 N 9 11 5 6 1006.3 1005.4 1.4
03/05:00pm 25.2 24.7 19.1 69 3.9 ENE 20 33 11 18 1006.9 1006.0 1.2
03/04:30pm 26.5 25.6 19.1 64 4.8 SE 22 30 12 16 1006.7 1005.8 0.0
03/04:15pm 26.3 23.7 17.9 60 5.3 SSE 28 52 15 28 1006.4 1005.5 0.0
03/04:10pm 31.3 33.3 22.9 61 5.8 SW 17 52 9 28 1006.2 1005.3 0.0
03/04:00pm 32.7 35.4 24.2 61 6.0 WSW 17 20 9 11 1005.2 1004.3 0.0
03/03:30pm 32.7 36.0 24.5 62 5.8 W 15 19 8 10 1004.5 1003.7 0.0
03/03:00pm 32.8 36.5 24.5 61 5.9 WNW 13 20 7 11 1004.5 1003.7 0.0
03/02:30pm 32.5 36.2 24.5 62 5.6 NW 13 19 7 10 1004.8 1003.9 0.0
03/02:00pm 32.5 36.0 24.8 64 5.5 NW 15 19 8 10 1005.2 1004.3 0.0
03/01:30pm 32.5 36.9 25.1 65 5.3 NNW 11 13 6 7 1005.6 1004.7 0.0
03/01:00pm 32.6 38.0 25.4 66 5.1 WNW 7 11 4 6 1006.1 1005.2 0.0
03/12:30pm 32.0 37.9 25.3 67 4.8 N 4 9 2 5 1006.7 1005.8 0.0
03/12:00pm 31.2 36.4 24.8 69 4.5 NW 6 7 3 4 1007.1 1006.2 0.0
03/11:30am 31.4 36.5 25.5 71 4.2 NNW 9 13 5 7 1007.5 1006.6 0.0
03/11:00am 31.0 36.0 25.4 72 4.0 NNW 9 11 5 6 1007.7 1006.8 0.0
03/10:30am 31.2 37.7 26.2 75 3.6 NNE 4 9 2 5 1008.0 1007.1 0.0
03/10:00am 30.2 36.0 25.7 77 3.2 NE 6 9 3 5 1008.2 1007.3 0.0
03/09:30am 29.7 35.4 25.9 80 2.7 E 7 11 4 6 1008.3 1007.4 0.0
03/09:00am 29.0 34.5 25.6 82 2.4 E 7 11 4 6 1008.4 1007.5 0.2
03/08:30am 28.7 33.9 25.7 84 2.1 E 9 13 5 7 1008.7 1007.8 0.2
03/08:00am 28.2 32.6 25.6 86 1.8 E 13 17 7 9 1008.6 1007.7 0.2
03/07:30am 27.9 33.0 25.5 87 1.7 ESE 9 11 5 6 1008.4 1007.5 0.2
03/07:00am 27.5 32.4 25.3 88 1.6 SE 9 13 5 7 1008.0 1007.1 0.2
03/06:30am 27.2 33.0 25.2 89 1.4 SE 4 11 2 6 1007.7 1006.8 0.2
03/06:00am 26.7 33.1 24.9 90 1.3 CALM 0 0 0 0 1007.8 1006.9 0.2
03/05:30am 26.8 32.1 25.2 91 1.1 SSE 7 11 4 6 1007.7 1006.8 0.2
03/05:00am 26.6 31.9 25.2 92 1.0 S 7 9 4 5 1007.4 1006.5 0.2
03/04:30am 26.7 32.0 25.3 92 1.0 SSE 7 11 4 6 1006.5 1005.6 0.2
03/04:00am 26.6 32.0 25.4 93 0.8 S 7 9 4 5 1006.0 1005.1 0.2
03/03:30am 26.2 30.9 25.0 93 0.8 SSW 9 11 5 6 1005.9 1005.0 0.2
03/03:00am 26.3 30.9 24.7 91 1.1 SW 9 13 5 7 1005.9 1005.0 0.2
03/02:30am 26.8 33.3 25.0 90 1.3 CALM 0 0 0 0 1006.0 1005.1 0.2
03/02:00am 26.9 33.2 24.7 88 1.5 CALM 0 0 0 0 1006.3 1005.4 0.2
03/01:30am 27.4 33.9 25.0 87 1.7 CALM 0 0 0 0 1006.7 1005.8 0.2
03/01:00am 27.5 33.9 24.9 86 1.8 CALM 0 0 0 0 1006.7 1005.8 0.2
03/12:30am 27.7 33.8 24.5 83 2.2 CALM 0 0 0 0 1006.7 1005.8 0.2
03/12:00am 27.7 33.6 24.1 81 2.5 CALM 0 0 0 0 1007.0 1006.1 0.2
 
Date/Time
WST
Temp
°C
App
Temp
°C
Dew
Point
Rel
Hum
%
Delta-T
°C
Wind Press
QNH
hPa
Press
MSL
hPa
Rain
since 9 am
mm
Dir
 
Spd
km/h
Gust
km/h
Spd
kts
Gust
kts
02/11:30pm 27.5 31.9 23.5 79 2.8 WSW 6 9 3 5 1007.4 1006.5 0.2
02/11:00pm 28.0 32.5 23.6 77 3.0 E 6 9 3 5 1007.5 1006.6 0.2
02/10:30pm 28.8 34.6 23.9 75 3.4 CALM 0 0 0 0 1007.4 1006.5 0.2
02/10:00pm 29.0 34.8 23.9 74 3.5 CALM 0 0 0 0 1007.6 1006.7 0.2
02/09:30pm 28.8 33.0 23.2 71 3.8 SSW 6 6 3 3 1007.5 1006.6 0.2
02/09:00pm 28.9 33.0 22.9 70 4.1 SW 6 7 3 4 1007.5 1006.6 0.2
02/08:30pm 29.4 33.5 22.9 68 4.5 SE 6 7 3 4 1007.2 1006.3 0.2
02/08:00pm 29.4 32.6 22.4 66 4.8 ESE 9 11 5 6 1006.4 1005.5 0.2
02/07:30pm 29.7 32.7 21.9 63 5.3 SE 9 9 5 5 1005.9 1005.0 0.2
02/07:00pm 30.4 33.9 21.8 60 5.8 SSE 6 9 3 5 1005.4 1004.5 0.2
02/06:30pm 31.1 34.3 21.6 57 6.4 SSE 7 9 4 5 1005.0 1004.1 0.2
02/06:00pm 32.4 36.3 21.9 54 7.2 SSW 4 7 2 4 1004.9 1004.0 0.2
02/05:30pm 34.0 38.3 22.7 51 7.8 WSW 4 7 2 4 1004.4 1003.6 0.2
02/05:00pm 34.4 38.6 23.4 52 7.7 W 7 11 4 6 1003.9 1003.1 0.2
02/04:30pm 34.6 39.3 23.9 53 7.5 W 6 13 3 7 1003.4 1002.6 0.2
02/04:00pm 34.0 38.1 24.0 56 7.0 SW 9 15 5 8 1003.2 1002.4 0.2
02/03:30pm 34.4 39.5 24.9 57 6.8 SSW 7 13 4 7 1003.2 1002.4 0.2
02/03:00pm 33.7 37.6 24.8 59 6.3 SW 13 17 7 9 1003.5 1002.7 0.2
02/02:30pm 33.0 37.4 24.5 61 6.0 W 9 13 5 7 1003.6 1002.8 0.2
02/02:00pm 33.7 38.9 25.7 63 5.7 SW 9 15 5 8 1004.1 1003.3 0.2
02/01:30pm 33.7 39.0 26.5 66 5.2 WSW 11 20 6 11 1005.0 1004.1 0.2
02/01:00pm 32.7 38.4 26.5 70 4.5 WSW 9 20 5 11 1005.3 1004.4 0.2
02/12:30pm 32.4 38.4 26.9 73 4.0 WSW 9 17 5 9 1005.7 1004.8 0.2
02/12:00pm 31.0 37.0 26.3 76 3.4 W 7 11 4 6 1006.4 1005.5 0.2
02/11:30am 29.9 36.2 25.9 79 2.9 SSW 4 9 2 5 1007.1 1006.2 0.2
02/11:00am 29.5 35.5 26.3 83 2.3 WSW 7 11 4 6 1007.8 1006.9 0.0
02/10:30am 28.7 35.6 26.3 87 1.7 SSW 2 7 1 4 1008.2 1007.3 0.0
02/10:00am 28.0 34.5 26.2 90 1.3 SSE 4 9 2 5 1008.5 1007.6 0.0
02/09:30am 27.3 33.4 26.2 94 0.8 ENE 6 11 3 6 1009.0 1008.1 0.0
02/09:00am 26.6 33.5 26.3 98 0.2 E 2 9 1 5 1009.4 1008.5 9.4
02/08:30am 25.9 30.5 25.9 100 0.0 SE 13 24 7 13 1009.7 1008.8 9.4
02/08:00am 25.3 28.7 25.3 100 0.0 E 17 24 9 13 1009.5 1008.6 9.4
02/07:30am 24.6 27.2 24.6 100 0.0 E 19 28 10 15 1009.6 1008.7 9.4
02/07:00am 24.4 25.5 24.4 100 0.0 E 26 39 14 21 1009.1 1008.2 9.4
02/06:49am 24.3 27.1 24.3 100 0.0 ENE 17 33 9 18 1009.3 1008.4 9.4
02/06:30am 23.9 27.6 23.9 100 0.0 N 11 15 6 8 1007.3 1006.4 9.4
02/06:00am 24.1 27.9 24.1 100 0.0 NNE 11 15 6 8 1006.8 1005.9 9.4
02/05:30am 24.0 27.4 24.0 100 0.0 ENE 13 19 7 10 1006.6 1005.7 9.4
02/05:00am 24.2 28.5 24.2 100 0.0 S 9 15 5 8 1006.3 1005.4 9.4
02/04:30am 24.1 26.8 24.1 100 0.0 SW 17 20 9 11 1006.2 1005.3 9.4
02/04:00am 23.8 25.4 23.8 100 0.0 SW 22 30 12 16 1005.9 1005.0 9.4
02/03:30am 23.6 25.4 23.6 100 0.0 SW 20 26 11 14 1006.4 1005.5 9.2
02/03:00am 23.6 25.4 23.6 100 0.0 WSW 20 26 11 14 1006.2 1005.3 8.8
02/02:30am 23.4 24.8 22.9 97 0.3 SW 20 32 11 17 1007.7 1006.8 8.2
02/02:00am 23.2 24.3 22.0 93 0.8 NW 19 26 10 14 1008.0 1007.1 7.8
02/01:30am 23.5 24.3 21.4 88 1.4 NE 19 26 10 14 1009.9 1009.0 1.0
02/01:00am 23.4 20.5 20.1 82 2.1 N 35 44 19 24 1008.6 1007.7 0.8
02/12:30am 24.7 23.7 20.4 77 2.8 N 26 35 14 19 1008.6 1007.7 0.0
02/12:00am 26.1 29.3 21.3 75 3.2 SW 6 9 3 5 1007.7 1006.8 0.0
 
Date/Time
WST
Temp
°C
App
Temp
°C
Dew
Point
Rel
Hum
%
Delta-T
°C
Wind Press
QNH
hPa
Press
MSL
hPa
Rain
since 9 am
mm
Dir
 
Spd
km/h
Gust
km/h
Spd
kts
Gust
kts
01/11:30pm 26.0 28.5 21.0 74 3.3 WSW 9 11 5 6 1007.7 1006.8 0.0
01/11:00pm 26.0 27.6 20.8 73 3.4 WNW 13 19 7 10 1007.7 1006.8 0.0
01/10:30pm 25.9 25.2 20.2 71 3.7 NW 24 32 13 17 1008.4 1007.5 0.0
01/10:00pm 26.3 25.6 20.2 69 4.0 NW 24 32 13 17 1008.6 1007.7 0.0
01/09:30pm 27.4 24.6 20.2 65 4.7 NW 35 48 19 26 1008.7 1007.8 0.0
01/09:00pm 28.6 27.1 20.3 60 5.5 WNW 28 39 15 21 1008.3 1007.4 0.0
01/08:30pm 29.8 29.4 20.9 59 5.9 WNW 24 33 13 18 1007.6 1006.7 0.0
01/08:00pm 30.8 30.2 21.3 57 6.4 W 26 35 14 19 1006.5 1005.6 0.0
01/07:48pm 31.4 30.4 21.3 55 6.8 W 28 37 15 20 1006.3 1005.4 0.0
01/07:30pm 31.7 34.3 21.2 53 7.1 NW 9 11 5 6 1005.5 1004.6 0.0
01/07:00pm 31.8 34.0 20.4 51 7.6 NW 9 13 5 7 1005.3 1004.4 0.0
01/06:30pm 33.5 36.4 20.6 46 8.7 N 6 7 3 4 1004.6 1003.8 0.0
01/06:00pm 34.5 38.3 20.1 43 9.7 CALM 0 0 0 0 1004.3 1003.5 0.0
01/05:30pm 36.2 40.3 20.8 40 10.4 CALM 0 0 0 0 1003.9 1003.1 0.0
01/05:00pm 36.4 40.1 21.4 41 10.3 ENE 4 9 2 5 1003.4 1002.6 0.0

Other Formats:

Comma delimited format used in spreadsheet applications
http://www.bom.gov.au/fwo/IDW60801/IDW60801.94206.axf

JavaScript Object Notation format (JSON) in row-major order
http://www.bom.gov.au/fwo/IDW60801/IDW60801.94206.json